createdAt,value
2019-01-25T00:42:03.380Z,22.6
2019-01-25T01:42:03.448Z,22.5
2019-01-25T02:42:02.680Z,22.5
2019-01-25T03:42:02.928Z,22.5
2019-01-25T04:42:02.970Z,22.5
2019-01-25T05:42:03.076Z,22.6
2019-01-25T06:42:02.846Z,22.9
2019-01-25T07:42:02.944Z,23.2
2019-01-25T08:42:03.566Z,23.6
2019-01-25T09:42:02.859Z,23.8
2019-01-25T10:00:03.696Z,23.9
2019-01-25T10:05:03.695Z,23.9
2019-01-25T10:10:03.662Z,23.9
2019-01-25T10:15:03.746Z,23.9
2019-01-25T10:20:03.568Z,23.9
2019-01-25T10:25:03.539Z,23.9
2019-01-25T10:30:04.145Z,24
2019-01-25T10:35:03.070Z,24
2019-01-25T10:40:03.261Z,24
2019-01-25T10:45:04.514Z,24
2019-01-25T10:50:03.558Z,24
2019-01-25T10:55:03.057Z,24
2019-01-25T11:00:03.948Z,24.1
2019-01-25T11:05:02.817Z,24.1
2019-01-25T11:10:03.493Z,24.1
2019-01-25T11:15:04.123Z,24.1
2019-01-25T11:20:03.398Z,24.1
2019-01-25T11:25:02.996Z,24.1
2019-01-25T11:30:04.500Z,24.1
2019-01-25T11:35:03.072Z,24.1
2019-01-25T11:40:03.311Z,24.1
2019-01-25T11:45:03.285Z,24.1
2019-01-25T11:50:03.274Z,24.1
2019-01-25T11:55:03.334Z,24.1
2019-01-25T12:00:05.081Z,24.1
2019-01-25T12:05:03.315Z,24.1
2019-01-25T12:10:03.042Z,24.1
2019-01-25T12:15:02.983Z,24.1
2019-01-25T12:20:02.950Z,24.1
2019-01-25T12:25:02.981Z,24.1
2019-01-25T12:30:03.346Z,24.1
2019-01-25T12:35:07.200Z,24.1
2019-01-25T12:40:03.220Z,24.1
2019-01-25T12:45:04.258Z,24.1
2019-01-25T12:50:03.595Z,24.1
2019-01-25T12:55:03.612Z,24.1
2019-01-25T13:00:04.621Z,24.1
2019-01-25T13:05:03.237Z,24.1
2019-01-25T13:10:02.906Z,24
2019-01-25T13:15:03.512Z,24
2019-01-25T13:20:03.130Z,24
2019-01-25T13:25:02.926Z,24
2019-01-25T13:30:04.094Z,24
2019-01-25T13:35:03.017Z,24
2019-01-25T13:40:03.443Z,24
2019-01-25T13:45:03.646Z,24
2019-01-25T13:50:03.408Z,23.9
2019-01-25T13:55:03.417Z,23.9
2019-01-25T14:00:04.302Z,23.9
2019-01-25T14:05:03.137Z,23.9
2019-01-25T14:10:03.416Z,23.9
2019-01-25T14:15:03.660Z,23.9
2019-01-25T14:20:03.889Z,23.9
2019-01-25T14:25:02.960Z,23.9
2019-01-25T14:30:04.035Z,23.8
2019-01-25T14:35:02.784Z,23.8
2019-01-25T14:40:03.535Z,23.7
2019-01-25T14:45:03.569Z,23.7
2019-01-25T14:50:04.009Z,23.6
2019-01-25T14:55:02.551Z,23.6
2019-01-25T15:00:04.572Z,23.5
2019-01-25T15:05:03.836Z,23.5
2019-01-25T15:10:04.011Z,23.4
2019-01-25T15:15:03.126Z,23.4
2019-01-25T15:20:03.155Z,23.3
2019-01-25T15:25:02.941Z,23.3
2019-01-25T15:30:04.453Z,23.2
2019-01-25T15:35:03.108Z,23.2
2019-01-25T15:40:03.037Z,23.1
2019-01-25T15:45:03.010Z,23.1
2019-01-25T15:50:03.193Z,23
2019-01-25T15:55:03.292Z,23
2019-01-25T16:00:05.070Z,22.9
2019-01-25T16:05:03.094Z,22.9
2019-01-25T16:10:02.960Z,22.8
2019-01-25T16:15:03.650Z,22.8
2019-01-25T16:20:03.745Z,22.8
2019-01-25T16:25:03.260Z,22.8
2019-01-25T16:30:04.668Z,22.7
2019-01-25T16:35:03.535Z,22.7
2019-01-25T16:40:03.411Z,22.7
2019-01-25T16:45:03.485Z,22.7
2019-01-25T16:50:04.194Z,22.7
2019-01-25T16:55:02.965Z,22.7
2019-01-25T17:00:04.067Z,22.6
2019-01-25T17:05:02.892Z,22.6
2019-01-25T17:10:02.748Z,22.6
2019-01-25T17:15:04.900Z,22.6
2019-01-25T17:20:03.607Z,22.6
2019-01-25T17:25:03.684Z,22.6
2019-01-25T17:30:04.852Z,22.6
2019-01-25T17:35:04.282Z,22.6
2019-01-25T17:40:03.176Z,22.6
2019-01-25T17:45:03.415Z,22.6
2019-01-25T17:50:02.990Z,22.6
2019-01-25T17:55:02.622Z,22.6
2019-01-25T18:00:05.919Z,22.6
2019-01-25T18:05:02.667Z,22.6
2019-01-25T18:10:03.760Z,22.6
2019-01-25T18:15:04.110Z,22.6
2019-01-25T18:20:03.740Z,22.6
2019-01-25T18:25:03.979Z,22.6
2019-01-25T18:30:03.627Z,22.6
2019-01-25T18:35:03.470Z,22.6
2019-01-25T18:40:03.662Z,22.6
2019-01-25T18:45:04.126Z,22.6
2019-01-25T18:50:03.107Z,22.7
2019-01-25T18:55:02.788Z,22.7
2019-01-25T19:00:04.723Z,22.7
2019-01-25T19:05:03.357Z,22.7
2019-01-25T19:10:03.053Z,22.7
2019-01-25T19:15:04.406Z,22.7
2019-01-25T19:20:03.858Z,22.6
2019-01-25T19:25:03.064Z,22.6
2019-01-25T19:30:03.875Z,22.6
2019-01-25T19:35:02.546Z,22.6
2019-01-25T19:40:03.776Z,22.6
2019-01-25T19:45:03.842Z,22.6
2019-01-25T19:50:04.037Z,22.6
2019-01-25T19:55:02.778Z,22.7
2019-01-25T20:00:04.305Z,22.7
2019-01-25T20:05:02.780Z,22.7
2019-01-25T20:10:03.437Z,22.7
2019-01-25T20:15:03.833Z,22.7
2019-01-25T20:20:04.234Z,22.7
2019-01-25T20:25:02.790Z,22.7
2019-01-25T20:30:05.291Z,22.7
2019-01-25T20:35:02.895Z,22.7
2019-01-25T20:40:03.088Z,22.7
2019-01-25T20:45:03.453Z,22.7
2019-01-25T20:50:03.680Z,22.7
2019-01-25T20:55:03.242Z,22.7
2019-01-25T21:00:08.314Z,22.7
2019-01-25T21:05:03.944Z,22.7
2019-01-25T21:10:03.002Z,22.7
2019-01-25T21:15:03.173Z,22.7
2019-01-25T21:20:03.466Z,22.7
2019-01-25T21:25:03.011Z,22.7
2019-01-25T21:30:03.503Z,22.7
2019-01-25T21:35:03.493Z,22.7
2019-01-25T21:40:08.416Z,22.7
2019-01-25T21:45:04.134Z,22.7
2019-01-25T21:50:02.979Z,22.7
2019-01-25T21:55:02.806Z,22.7
2019-01-25T22:00:06.119Z,22.7
2019-01-25T22:05:02.787Z,22.7
2019-01-25T22:10:06.233Z,22.7
2019-01-25T22:20:03.399Z,22.8
2019-01-25T22:25:03.311Z,22.8
2019-01-25T22:30:03.461Z,22.8
2019-01-25T22:35:03.010Z,22.9
2019-01-25T22:40:04.107Z,22.9
2019-01-25T22:45:02.809Z,22.9
2019-01-25T22:50:03.410Z,22.9
2019-01-25T22:55:04.456Z,23
2019-01-25T23:00:03.976Z,23
2019-01-25T23:05:02.662Z,23
2019-01-25T23:10:03.569Z,23
2019-01-25T23:15:04.393Z,23
2019-01-25T23:20:03.060Z,23
2019-01-25T23:25:02.879Z,23
2019-01-25T23:30:03.098Z,23
2019-01-25T23:35:02.698Z,23
2019-01-25T23:40:03.208Z,23
2019-01-25T23:45:02.892Z,23
2019-01-25T23:50:02.456Z,23
2019-01-25T23:55:02.977Z,23
